sensor_id;sensor_type;location;lat;lon;timestamp;P1;durP1;ratioP1;P2;durP2;ratioP2
77520;SDS011;66633;47.628;19.158;2023-04-24T00:02:01;6.80;;;3.63;;
77520;SDS011;66633;47.628;19.158;2023-04-24T00:04:26;8.38;;;4.55;;
77520;SDS011;66633;47.628;19.158;2023-04-24T00:06:51;8.82;;;4.95;;
77520;SDS011;66633;47.628;19.158;2023-04-24T00:11:47;8.40;;;3.58;;
77520;SDS011;66633;47.628;19.158;2023-04-24T00:14:12;8.40;;;4.07;;
77520;SDS011;66633;47.628;19.158;2023-04-24T00:16:37;6.25;;;3.60;;
77520;SDS011;66633;47.628;19.158;2023-04-24T00:19:02;7.45;;;4.22;;
77520;SDS011;66633;47.628;19.158;2023-04-24T00:21:28;8.27;;;4.47;;
77520;SDS011;66633;47.628;19.158;2023-04-24T00:23:53;7.63;;;3.87;;
77520;SDS011;66633;47.628;19.158;2023-04-24T00:26:18;6.10;;;3.13;;
77520;SDS011;66633;47.628;19.158;2023-04-24T00:28:43;6.83;;;3.73;;
77520;SDS011;66633;47.628;19.158;2023-04-24T00:31:09;7.28;;;3.67;;
77520;SDS011;66633;47.628;19.158;2023-04-24T00:33:34;7.03;;;4.07;;
77520;SDS011;66633;47.628;19.158;2023-04-24T00:35:59;6.68;;;3.80;;
77520;SDS011;66633;47.628;19.158;2023-04-24T00:38:24;8.55;;;3.60;;
77520;SDS011;66633;47.628;19.158;2023-04-24T00:40:50;6.90;;;4.37;;
77520;SDS011;66633;47.628;19.158;2023-04-24T00:43:15;7.93;;;5.03;;
77520;SDS011;66633;47.628;19.158;2023-04-24T00:45:41;6.22;;;3.03;;
77520;SDS011;66633;47.628;19.158;2023-04-24T00:48:06;7.03;;;3.75;;
77520;SDS011;66633;47.628;19.158;2023-04-24T00:50:31;5.78;;;3.28;;
77520;SDS011;66633;47.628;19.158;2023-04-24T00:52:57;6.65;;;3.88;;
77520;SDS011;66633;47.628;19.158;2023-04-24T00:55:22;8.07;;;4.28;;
77520;SDS011;66633;47.628;19.158;2023-04-24T00:57:47;7.43;;;4.10;;
77520;SDS011;66633;47.628;19.158;2023-04-24T01:00:13;7.65;;;4.85;;
77520;SDS011;66633;47.628;19.158;2023-04-24T01:02:39;7.13;;;4.25;;
77520;SDS011;66633;47.628;19.158;2023-04-24T01:05:08;7.05;;;3.75;;
77520;SDS011;66633;47.628;19.158;2023-04-24T01:07:34;6.30;;;3.90;;
77520;SDS011;66633;47.628;19.158;2023-04-24T01:09:59;7.70;;;4.38;;
77520;SDS011;66633;47.628;19.158;2023-04-24T01:12:25;9.18;;;4.57;;
77520;SDS011;66633;47.628;19.158;2023-04-24T01:14:50;7.03;;;4.30;;
77520;SDS011;66633;47.628;19.158;2023-04-24T01:17:16;6.22;;;3.75;;
77520;SDS011;66633;47.628;19.158;2023-04-24T01:19:41;6.57;;;3.70;;
77520;SDS011;66633;47.628;19.158;2023-04-24T01:22:15;7.83;;;4.83;;
77520;SDS011;66633;47.628;19.158;2023-04-24T01:24:41;7.57;;;4.50;;
77520;SDS011;66633;47.628;19.158;2023-04-24T01:27:07;8.07;;;4.10;;
77520;SDS011;66633;47.628;19.158;2023-04-24T01:29:33;10.98;;;5.45;;
77520;SDS011;66633;47.628;19.158;2023-04-24T01:31:58;7.22;;;4.20;;
77520;SDS011;66633;47.628;19.158;2023-04-24T01:34:24;8.27;;;4.30;;
77520;SDS011;66633;47.628;19.158;2023-04-24T01:36:49;7.82;;;4.18;;
77520;SDS011;66633;47.628;19.158;2023-04-24T01:39:15;6.78;;;3.58;;
77520;SDS011;66633;47.628;19.158;2023-04-24T01:41:41;7.10;;;4.07;;
77520;SDS011;66633;47.628;19.158;2023-04-24T01:44:07;6.55;;;4.22;;
77520;SDS011;66633;47.628;19.158;2023-04-24T01:46:32;7.10;;;4.25;;
77520;SDS011;66633;47.628;19.158;2023-04-24T01:48:59;9.23;;;4.30;;
77520;SDS011;66633;47.628;19.158;2023-04-24T01:51:25;5.97;;;3.25;;
77520;SDS011;66633;47.628;19.158;2023-04-24T01:53:51;6.97;;;3.67;;
77520;SDS011;66633;47.628;19.158;2023-04-24T01:56:19;6.65;;;4.05;;
77520;SDS011;66633;47.628;19.158;2023-04-24T01:58:45;6.93;;;3.90;;
77520;SDS011;66633;47.628;19.158;2023-04-24T02:01:14;8.70;;;5.32;;
77520;SDS011;66633;47.628;19.158;2023-04-24T02:03:40;6.43;;;3.60;;
77520;SDS011;66633;47.628;19.158;2023-04-24T02:06:05;7.23;;;3.83;;
77520;SDS011;66633;47.628;19.158;2023-04-24T02:08:30;6.10;;;3.13;;
77520;SDS011;66633;47.628;19.158;2023-04-24T02:10:56;7.60;;;4.53;;
77520;SDS011;66633;47.628;19.158;2023-04-24T02:13:22;8.18;;;5.32;;
77520;SDS011;66633;47.628;19.158;2023-04-24T02:15:47;9.68;;;5.70;;
77520;SDS011;66633;47.628;19.158;2023-04-24T02:18:12;8.63;;;5.18;;
77520;SDS011;66633;47.628;19.158;2023-04-24T02:20:38;9.77;;;6.57;;
77520;SDS011;66633;47.628;19.158;2023-04-24T02:23:03;11.23;;;7.55;;
77520;SDS011;66633;47.628;19.158;2023-04-24T02:25:28;9.77;;;5.83;;
77520;SDS011;66633;47.628;19.158;2023-04-24T02:27:54;10.82;;;6.80;;
77520;SDS011;66633;47.628;19.158;2023-04-24T02:30:19;9.43;;;5.20;;
77520;SDS011;66633;47.628;19.158;2023-04-24T02:32:44;9.93;;;6.35;;
77520;SDS011;66633;47.628;19.158;2023-04-24T02:35:10;8.87;;;6.23;;
77520;SDS011;66633;47.628;19.158;2023-04-24T02:37:35;9.80;;;6.30;;
77520;SDS011;66633;47.628;19.158;2023-04-24T02:40:01;12.13;;;8.10;;
77520;SDS011;66633;47.628;19.158;2023-04-24T02:42:26;14.60;;;8.80;;
77520;SDS011;66633;47.628;19.158;2023-04-24T02:44:51;11.20;;;8.30;;
77520;SDS011;66633;47.628;19.158;2023-04-24T02:47:17;11.87;;;7.93;;
77520;SDS011;66633;47.628;19.158;2023-04-24T02:49:42;11.13;;;6.90;;
77520;SDS011;66633;47.628;19.158;2023-04-24T02:52:07;9.63;;;7.47;;
77520;SDS011;66633;47.628;19.158;2023-04-24T02:54:32;11.48;;;7.70;;
77520;SDS011;66633;47.628;19.158;2023-04-24T02:56:58;9.17;;;5.87;;
77520;SDS011;66633;47.628;19.158;2023-04-24T02:59:23;13.90;;;8.50;;
77520;SDS011;66633;47.628;19.158;2023-04-24T03:01:48;12.15;;;8.80;;
77520;SDS011;66633;47.628;19.158;2023-04-24T03:04:13;14.45;;;8.95;;
77520;SDS011;66633;47.628;19.158;2023-04-24T03:06:40;13.18;;;9.50;;
77520;SDS011;66633;47.628;19.158;2023-04-24T03:09:05;11.25;;;8.20;;
77520;SDS011;66633;47.628;19.158;2023-04-24T03:11:31;13.48;;;8.30;;
77520;SDS011;66633;47.628;19.158;2023-04-24T03:13:56;9.13;;;5.90;;
77520;SDS011;66633;47.628;19.158;2023-04-24T03:16:21;12.40;;;7.93;;
77520;SDS011;66633;47.628;19.158;2023-04-24T03:18:46;12.83;;;7.50;;
77520;SDS011;66633;47.628;19.158;2023-04-24T03:21:12;12.93;;;8.27;;
77520;SDS011;66633;47.628;19.158;2023-04-24T03:23:37;11.63;;;7.47;;
77520;SDS011;66633;47.628;19.158;2023-04-24T03:26:02;12.00;;;8.27;;
77520;SDS011;66633;47.628;19.158;2023-04-24T03:28:27;12.98;;;8.15;;
77520;SDS011;66633;47.628;19.158;2023-04-24T03:30:53;11.05;;;7.95;;
77520;SDS011;66633;47.628;19.158;2023-04-24T03:33:18;8.07;;;5.20;;
77520;SDS011;66633;47.628;19.158;2023-04-24T03:35:43;12.73;;;8.95;;
77520;SDS011;66633;47.628;19.158;2023-04-24T03:38:08;11.77;;;8.47;;
77520;SDS011;66633;47.628;19.158;2023-04-24T03:40:34;10.32;;;7.32;;
77520;SDS011;66633;47.628;19.158;2023-04-24T03:42:59;12.63;;;8.05;;
77520;SDS011;66633;47.628;19.158;2023-04-24T03:45:24;14.23;;;9.63;;
77520;SDS011;66633;47.628;19.158;2023-04-24T03:47:50;12.48;;;8.43;;
77520;SDS011;66633;47.628;19.158;2023-04-24T03:50:15;11.67;;;8.30;;
77520;SDS011;66633;47.628;19.158;2023-04-24T03:52:40;12.48;;;8.13;;
77520;SDS011;66633;47.628;19.158;2023-04-24T03:55:06;13.27;;;8.30;;
77520;SDS011;66633;47.628;19.158;2023-04-24T03:57:31;11.15;;;7.88;;
77520;SDS011;66633;47.628;19.158;2023-04-24T03:59:56;12.50;;;8.00;;
77520;SDS011;66633;47.628;19.158;2023-04-24T04:02:22;8.70;;;5.87;;
77520;SDS011;66633;47.628;19.158;2023-04-24T04:04:47;12.00;;;6.97;;
77520;SDS011;66633;47.628;19.158;2023-04-24T04:07:12;13.40;;;8.53;;
77520;SDS011;66633;47.628;19.158;2023-04-24T04:09:38;8.50;;;5.65;;
77520;SDS011;66633;47.628;19.158;2023-04-24T04:12:03;13.63;;;8.43;;
77520;SDS011;66633;47.628;19.158;2023-04-24T04:14:28;10.52;;;6.70;;
77520;SDS011;66633;47.628;19.158;2023-04-24T04:16:54;11.48;;;8.50;;
77520;SDS011;66633;47.628;19.158;2023-04-24T04:19:20;8.95;;;6.13;;
77520;SDS011;66633;47.628;19.158;2023-04-24T04:21:45;8.38;;;5.65;;
77520;SDS011;66633;47.628;19.158;2023-04-24T04:24:11;12.02;;;5.70;;
77520;SDS011;66633;47.628;19.158;2023-04-24T04:26:36;9.10;;;6.03;;
77520;SDS011;66633;47.628;19.158;2023-04-24T04:29:05;12.35;;;7.57;;
77520;SDS011;66633;47.628;19.158;2023-04-24T04:31:37;12.07;;;7.75;;
77520;SDS011;66633;47.628;19.158;2023-04-24T04:34:02;10.33;;;5.13;;
77520;SDS011;66633;47.628;19.158;2023-04-24T04:36:28;7.75;;;5.45;;
77520;SDS011;66633;47.628;19.158;2023-04-24T04:38:54;10.05;;;6.65;;
77520;SDS011;66633;47.628;19.158;2023-04-24T04:41:19;9.85;;;6.80;;
77520;SDS011;66633;47.628;19.158;2023-04-24T04:43:45;9.90;;;7.47;;
77520;SDS011;66633;47.628;19.158;2023-04-24T04:46:11;8.85;;;5.88;;
77520;SDS011;66633;47.628;19.158;2023-04-24T04:48:36;10.10;;;7.07;;
77520;SDS011;66633;47.628;19.158;2023-04-24T04:51:02;12.65;;;7.70;;
77520;SDS011;66633;47.628;19.158;2023-04-24T04:53:28;12.43;;;8.23;;
77520;SDS011;66633;47.628;19.158;2023-04-24T04:55:53;13.23;;;9.18;;
77520;SDS011;66633;47.628;19.158;2023-04-24T04:58:18;11.50;;;9.20;;
77520;SDS011;66633;47.628;19.158;2023-04-24T05:00:44;13.05;;;8.10;;
77520;SDS011;66633;47.628;19.158;2023-04-24T05:03:09;11.55;;;7.50;;
77520;SDS011;66633;47.628;19.158;2023-04-24T05:05:35;10.05;;;7.20;;
77520;SDS011;66633;47.628;19.158;2023-04-24T05:08:00;11.60;;;6.97;;
77520;SDS011;66633;47.628;19.158;2023-04-24T05:10:25;9.83;;;7.30;;
77520;SDS011;66633;47.628;19.158;2023-04-24T05:12:51;10.90;;;7.00;;
77520;SDS011;66633;47.628;19.158;2023-04-24T05:15:16;10.97;;;6.80;;
77520;SDS011;66633;47.628;19.158;2023-04-24T05:17:41;9.75;;;6.63;;
77520;SDS011;66633;47.628;19.158;2023-04-24T05:20:07;10.73;;;7.03;;
77520;SDS011;66633;47.628;19.158;2023-04-24T05:22:33;11.82;;;7.10;;
77520;SDS011;66633;47.628;19.158;2023-04-24T05:24:58;9.98;;;6.50;;
77520;SDS011;66633;47.628;19.158;2023-04-24T05:27:24;10.55;;;5.95;;
77520;SDS011;66633;47.628;19.158;2023-04-24T05:29:49;10.23;;;5.57;;
77520;SDS011;66633;47.628;19.158;2023-04-24T05:32:14;12.32;;;7.30;;
77520;SDS011;66633;47.628;19.158;2023-04-24T05:34:40;11.80;;;6.95;;
77520;SDS011;66633;47.628;19.158;2023-04-24T05:37:05;9.90;;;6.30;;
77520;SDS011;66633;47.628;19.158;2023-04-24T05:39:33;10.30;;;6.80;;
77520;SDS011;66633;47.628;19.158;2023-04-24T05:41:58;9.10;;;6.03;;
77520;SDS011;66633;47.628;19.158;2023-04-24T05:44:24;10.73;;;6.57;;
77520;SDS011;66633;47.628;19.158;2023-04-24T05:46:49;12.63;;;6.70;;
77520;SDS011;66633;47.628;19.158;2023-04-24T05:49:15;8.82;;;6.40;;
77520;SDS011;66633;47.628;19.158;2023-04-24T05:51:40;11.63;;;7.27;;
77520;SDS011;66633;47.628;19.158;2023-04-24T05:54:06;11.10;;;8.13;;
77520;SDS011;66633;47.628;19.158;2023-04-24T05:56:31;11.10;;;8.02;;
77520;SDS011;66633;47.628;19.158;2023-04-24T05:58:56;14.10;;;7.50;;
77520;SDS011;66633;47.628;19.158;2023-04-24T06:01:22;9.77;;;6.30;;
77520;SDS011;66633;47.628;19.158;2023-04-24T06:03:47;11.50;;;6.43;;
77520;SDS011;66633;47.628;19.158;2023-04-24T06:06:12;9.90;;;7.20;;
77520;SDS011;66633;47.628;19.158;2023-04-24T06:08:37;13.17;;;7.30;;
77520;SDS011;66633;47.628;19.158;2023-04-24T06:11:03;10.60;;;7.70;;
77520;SDS011;66633;47.628;19.158;2023-04-24T06:13:28;12.95;;;7.13;;
77520;SDS011;66633;47.628;19.158;2023-04-24T06:15:53;12.18;;;7.53;;
77520;SDS011;66633;47.628;19.158;2023-04-24T06:18:19;12.43;;;8.68;;
77520;SDS011;66633;47.628;19.158;2023-04-24T06:20:45;12.13;;;8.53;;
77520;SDS011;66633;47.628;19.158;2023-04-24T06:23:10;12.38;;;8.32;;
77520;SDS011;66633;47.628;19.158;2023-04-24T06:25:35;9.75;;;6.93;;
77520;SDS011;66633;47.628;19.158;2023-04-24T06:28:01;13.35;;;8.38;;
77520;SDS011;66633;47.628;19.158;2023-04-24T06:30:27;12.27;;;8.85;;
77520;SDS011;66633;47.628;19.158;2023-04-24T06:32:53;11.75;;;8.80;;
77520;SDS011;66633;47.628;19.158;2023-04-24T06:35:18;10.90;;;6.67;;
77520;SDS011;66633;47.628;19.158;2023-04-24T06:37:43;9.77;;;7.05;;
77520;SDS011;66633;47.628;19.158;2023-04-24T06:40:09;14.25;;;8.13;;
77520;SDS011;66633;47.628;19.158;2023-04-24T06:42:35;11.43;;;7.10;;
77520;SDS011;66633;47.628;19.158;2023-04-24T06:45:00;11.32;;;8.30;;
77520;SDS011;66633;47.628;19.158;2023-04-24T06:47:26;10.98;;;7.88;;
77520;SDS011;66633;47.628;19.158;2023-04-24T06:49:51;9.82;;;6.00;;
77520;SDS011;66633;47.628;19.158;2023-04-24T06:52:19;12.35;;;7.47;;
77520;SDS011;66633;47.628;19.158;2023-04-24T06:57:46;14.25;;;9.30;;
77520;SDS011;66633;47.628;19.158;2023-04-24T07:00:12;15.77;;;9.35;;
77520;SDS011;66633;47.628;19.158;2023-04-24T07:02:37;12.30;;;8.57;;
77520;SDS011;66633;47.628;19.158;2023-04-24T07:05:03;13.82;;;8.25;;
77520;SDS011;66633;47.628;19.158;2023-04-24T07:07:29;12.10;;;8.13;;
77520;SDS011;66633;47.628;19.158;2023-04-24T07:09:54;13.38;;;8.75;;
77520;SDS011;66633;47.628;19.158;2023-04-24T07:12:21;11.05;;;7.63;;
77520;SDS011;66633;47.628;19.158;2023-04-24T07:14:46;11.05;;;8.13;;
77520;SDS011;66633;47.628;19.158;2023-04-24T07:17:12;12.57;;;8.38;;
77520;SDS011;66633;47.628;19.158;2023-04-24T07:19:38;13.23;;;8.32;;
77520;SDS011;66633;47.628;19.158;2023-04-24T07:22:03;10.60;;;6.97;;
77520;SDS011;66633;47.628;19.158;2023-04-24T07:24:28;10.82;;;7.57;;
77520;SDS011;66633;47.628;19.158;2023-04-24T07:26:55;12.55;;;7.78;;
77520;SDS011;66633;47.628;19.158;2023-04-24T07:29:20;11.98;;;8.45;;
77520;SDS011;66633;47.628;19.158;2023-04-24T07:31:46;11.15;;;7.93;;
77520;SDS011;66633;47.628;19.158;2023-04-24T07:34:11;11.32;;;7.72;;
77520;SDS011;66633;47.628;19.158;2023-04-24T07:36:36;11.53;;;7.30;;
77520;SDS011;66633;47.628;19.158;2023-04-24T07:39:03;10.07;;;7.75;;
77520;SDS011;66633;47.628;19.158;2023-04-24T07:41:28;12.55;;;8.63;;
77520;SDS011;66633;47.628;19.158;2023-04-24T07:43:54;12.77;;;8.38;;
77520;SDS011;66633;47.628;19.158;2023-04-24T07:46:19;10.32;;;8.07;;
77520;SDS011;66633;47.628;19.158;2023-04-24T07:48:45;10.68;;;8.30;;
77520;SDS011;66633;47.628;19.158;2023-04-24T07:51:11;10.10;;;7.85;;
77520;SDS011;66633;47.628;19.158;2023-04-24T07:53:38;12.20;;;7.70;;
77520;SDS011;66633;47.628;19.158;2023-04-24T07:56:04;12.07;;;9.40;;
77520;SDS011;66633;47.628;19.158;2023-04-24T07:58:29;12.85;;;7.95;;
77520;SDS011;66633;47.628;19.158;2023-04-24T08:00:54;11.90;;;8.85;;
77520;SDS011;66633;47.628;19.158;2023-04-24T08:03:19;11.67;;;7.77;;
77520;SDS011;66633;47.628;19.158;2023-04-24T08:05:45;11.23;;;8.35;;
77520;SDS011;66633;47.628;19.158;2023-04-24T08:08:10;11.73;;;8.57;;
77520;SDS011;66633;47.628;19.158;2023-04-24T08:10:35;13.32;;;8.88;;
77520;SDS011;66633;47.628;19.158;2023-04-24T08:13:01;12.47;;;8.47;;
77520;SDS011;66633;47.628;19.158;2023-04-24T08:15:27;10.80;;;7.88;;
77520;SDS011;66633;47.628;19.158;2023-04-24T08:17:52;11.05;;;7.97;;
77520;SDS011;66633;47.628;19.158;2023-04-24T08:20:17;13.13;;;8.40;;
77520;SDS011;66633;47.628;19.158;2023-04-24T08:22:43;11.20;;;8.07;;
77520;SDS011;66633;47.628;19.158;2023-04-24T08:25:09;10.00;;;7.78;;
77520;SDS011;66633;47.628;19.158;2023-04-24T08:27:34;13.98;;;8.55;;
77520;SDS011;66633;47.628;19.158;2023-04-24T08:29:59;12.35;;;8.93;;
77520;SDS011;66633;47.628;19.158;2023-04-24T08:32:25;10.75;;;7.82;;
77520;SDS011;66633;47.628;19.158;2023-04-24T08:34:52;11.57;;;9.07;;
77520;SDS011;66633;47.628;19.158;2023-04-24T08:37:18;12.45;;;9.13;;
77520;SDS011;66633;47.628;19.158;2023-04-24T08:39:43;13.85;;;9.02;;
77520;SDS011;66633;47.628;19.158;2023-04-24T08:42:08;11.27;;;7.50;;
77520;SDS011;66633;47.628;19.158;2023-04-24T08:44:34;12.13;;;7.60;;
77520;SDS011;66633;47.628;19.158;2023-04-24T08:47:03;12.18;;;8.75;;
77520;SDS011;66633;47.628;19.158;2023-04-24T08:49:29;9.88;;;7.68;;
77520;SDS011;66633;47.628;19.158;2023-04-24T08:51:54;10.43;;;7.72;;
77520;SDS011;66633;47.628;19.158;2023-04-24T08:54:20;11.00;;;8.15;;
77520;SDS011;66633;47.628;19.158;2023-04-24T08:56:45;10.10;;;7.75;;
77520;SDS011;66633;47.628;19.158;2023-04-24T08:59:12;11.93;;;8.35;;
77520;SDS011;66633;47.628;19.158;2023-04-24T09:01:38;13.18;;;8.90;;
77520;SDS011;66633;47.628;19.158;2023-04-24T09:04:04;11.27;;;7.68;;
77520;SDS011;66633;47.628;19.158;2023-04-24T09:06:31;10.25;;;7.13;;
77520;SDS011;66633;47.628;19.158;2023-04-24T09:08:57;11.80;;;8.50;;
77520;SDS011;66633;47.628;19.158;2023-04-24T09:11:25;11.55;;;8.82;;
77520;SDS011;66633;47.628;19.158;2023-04-24T09:13:51;10.88;;;7.35;;
77520;SDS011;66633;47.628;19.158;2023-04-24T09:16:16;10.25;;;8.05;;
77520;SDS011;66633;47.628;19.158;2023-04-24T09:18:42;12.10;;;8.98;;
77520;SDS011;66633;47.628;19.158;2023-04-24T09:21:08;13.20;;;8.87;;
77520;SDS011;66633;47.628;19.158;2023-04-24T09:23:33;12.68;;;9.30;;
77520;SDS011;66633;47.628;19.158;2023-04-24T09:25:59;10.93;;;8.53;;
77520;SDS011;66633;47.628;19.158;2023-04-24T09:28:30;12.38;;;9.05;;
77520;SDS011;66633;47.628;19.158;2023-04-24T09:31:02;11.52;;;8.85;;
77520;SDS011;66633;47.628;19.158;2023-04-24T09:33:27;11.40;;;8.18;;
77520;SDS011;66633;47.628;19.158;2023-04-24T09:35:53;11.50;;;7.90;;
77520;SDS011;66633;47.628;19.158;2023-04-24T09:38:18;11.63;;;8.27;;
77520;SDS011;66633;47.628;19.158;2023-04-24T09:40:45;11.10;;;8.02;;
77520;SDS011;66633;47.628;19.158;2023-04-24T09:43:10;10.73;;;8.30;;
77520;SDS011;66633;47.628;19.158;2023-04-24T09:45:36;10.88;;;8.48;;
77520;SDS011;66633;47.628;19.158;2023-04-24T09:48:02;10.80;;;8.07;;
77520;SDS011;66633;47.628;19.158;2023-04-24T09:50:29;9.10;;;6.80;;
77520;SDS011;66633;47.628;19.158;2023-04-24T09:52:57;9.05;;;6.03;;
77520;SDS011;66633;47.628;19.158;2023-04-24T09:55:23;9.07;;;6.28;;
77520;SDS011;66633;47.628;19.158;2023-04-24T09:57:49;8.40;;;5.95;;
77520;SDS011;66633;47.628;19.158;2023-04-24T10:00:22;8.52;;;5.88;;
77520;SDS011;66633;47.628;19.158;2023-04-24T10:02:54;9.95;;;5.70;;
77520;SDS011;66633;47.628;19.158;2023-04-24T10:05:21;8.75;;;5.35;;
77520;SDS011;66633;47.628;19.158;2023-04-24T10:07:47;7.45;;;4.68;;
77520;SDS011;66633;47.628;19.158;2023-04-24T10:10:12;6.80;;;4.20;;
77520;SDS011;66633;47.628;19.158;2023-04-24T10:12:38;8.85;;;5.20;;
77520;SDS011;66633;47.628;19.158;2023-04-24T10:15:04;7.03;;;4.65;;
77520;SDS011;66633;47.628;19.158;2023-04-24T10:17:30;8.80;;;4.60;;
77520;SDS011;66633;47.628;19.158;2023-04-24T10:19:56;7.43;;;5.05;;
77520;SDS011;66633;47.628;19.158;2023-04-24T10:22:22;9.15;;;5.57;;
77520;SDS011;66633;47.628;19.158;2023-04-24T10:24:54;8.75;;;5.38;;
77520;SDS011;66633;47.628;19.158;2023-04-24T10:27:21;7.43;;;6.13;;
77520;SDS011;66633;47.628;19.158;2023-04-24T10:29:47;7.80;;;6.22;;
77520;SDS011;66633;47.628;19.158;2023-04-24T10:32:13;9.25;;;6.38;;
77520;SDS011;66633;47.628;19.158;2023-04-24T10:34:39;7.40;;;5.28;;
77520;SDS011;66633;47.628;19.158;2023-04-24T10:37:04;8.23;;;5.40;;
77520;SDS011;66633;47.628;19.158;2023-04-24T10:39:30;8.18;;;5.43;;
77520;SDS011;66633;47.628;19.158;2023-04-24T10:41:58;9.13;;;5.97;;
77520;SDS011;66633;47.628;19.158;2023-04-24T10:44:23;9.20;;;6.13;;
77520;SDS011;66633;47.628;19.158;2023-04-24T10:46:52;9.07;;;5.88;;
77520;SDS011;66633;47.628;19.158;2023-04-24T10:49:18;7.95;;;4.80;;
77520;SDS011;66633;47.628;19.158;2023-04-24T10:51:52;9.35;;;5.60;;
77520;SDS011;66633;47.628;19.158;2023-04-24T10:59:46;10.55;;;4.97;;
77520;SDS011;66633;47.628;19.158;2023-04-24T11:02:13;9.32;;;5.40;;
77520;SDS011;66633;47.628;19.158;2023-04-24T11:04:40;8.52;;;5.82;;
77520;SDS011;66633;47.628;19.158;2023-04-24T11:07:05;10.25;;;5.70;;
77520;SDS011;66633;47.628;19.158;2023-04-24T11:09:31;8.55;;;5.25;;
77520;SDS011;66633;47.628;19.158;2023-04-24T11:12:09;9.82;;;5.75;;
77520;SDS011;66633;47.628;19.158;2023-04-24T11:15:09;8.20;;;5.85;;
77520;SDS011;66633;47.628;19.158;2023-04-24T11:17:35;8.55;;;5.47;;
77520;SDS011;66633;47.628;19.158;2023-04-24T11:20:05;9.20;;;5.85;;
77520;SDS011;66633;47.628;19.158;2023-04-24T11:22:49;9.00;;;5.63;;
77520;SDS011;66633;47.628;19.158;2023-04-24T11:25:17;8.20;;;6.18;;
77520;SDS011;66633;47.628;19.158;2023-04-24T11:27:43;12.47;;;6.13;;
77520;SDS011;66633;47.628;19.158;2023-04-24T11:30:09;9.23;;;6.15;;
77520;SDS011;66633;47.628;19.158;2023-04-24T11:32:36;9.48;;;6.35;;
77520;SDS011;66633;47.628;19.158;2023-04-24T11:35:03;8.88;;;5.82;;
77520;SDS011;66633;47.628;19.158;2023-04-24T11:37:38;9.82;;;7.30;;
77520;SDS011;66633;47.628;19.158;2023-04-24T11:40:04;11.07;;;7.10;;
77520;SDS011;66633;47.628;19.158;2023-04-24T11:42:34;11.85;;;7.63;;
77520;SDS011;66633;47.628;19.158;2023-04-24T11:44:59;10.52;;;7.63;;
77520;SDS011;66633;47.628;19.158;2023-04-24T11:47:29;9.70;;;6.93;;
77520;SDS011;66633;47.628;19.158;2023-04-24T11:49:55;9.68;;;6.93;;
77520;SDS011;66633;47.628;19.158;2023-04-24T11:52:20;9.45;;;6.63;;
77520;SDS011;66633;47.628;19.158;2023-04-24T11:54:49;9.40;;;6.53;;
77520;SDS011;66633;47.628;19.158;2023-04-24T11:57:15;8.93;;;6.38;;
77520;SDS011;66633;47.628;19.158;2023-04-24T11:59:40;9.13;;;6.55;;
77520;SDS011;66633;47.628;19.158;2023-04-24T12:02:06;10.15;;;7.40;;
77520;SDS011;66633;47.628;19.158;2023-04-24T12:04:40;9.82;;;6.13;;
77520;SDS011;66633;47.628;19.158;2023-04-24T12:07:06;10.13;;;6.50;;
77520;SDS011;66633;47.628;19.158;2023-04-24T12:09:46;9.80;;;6.88;;
77520;SDS011;66633;47.628;19.158;2023-04-24T12:12:12;11.10;;;7.00;;
77520;SDS011;66633;47.628;19.158;2023-04-24T12:14:44;10.77;;;7.20;;
77520;SDS011;66633;47.628;19.158;2023-04-24T12:17:09;10.65;;;8.07;;
77520;SDS011;66633;47.628;19.158;2023-04-24T12:19:35;10.43;;;7.25;;
77520;SDS011;66633;47.628;19.158;2023-04-24T12:22:04;11.95;;;7.65;;
77520;SDS011;66633;47.628;19.158;2023-04-24T12:24:30;10.40;;;7.78;;
77520;SDS011;66633;47.628;19.158;2023-04-24T12:26:56;10.23;;;7.93;;
77520;SDS011;66633;47.628;19.158;2023-04-24T12:29:21;10.13;;;7.53;;
77520;SDS011;66633;47.628;19.158;2023-04-24T12:31:47;10.75;;;7.18;;
77520;SDS011;66633;47.628;19.158;2023-04-24T12:34:21;11.10;;;7.35;;
77520;SDS011;66633;47.628;19.158;2023-04-24T12:36:47;12.40;;;8.52;;
77520;SDS011;66633;47.628;19.158;2023-04-24T12:39:19;12.30;;;8.25;;
77520;SDS011;66633;47.628;19.158;2023-04-24T12:41:54;11.02;;;8.55;;
77520;SDS011;66633;47.628;19.158;2023-04-24T12:44:28;13.45;;;8.93;;
77520;SDS011;66633;47.628;19.158;2023-04-24T12:46:53;11.43;;;8.95;;
77520;SDS011;66633;47.628;19.158;2023-04-24T12:49:18;13.97;;;9.50;;
77520;SDS011;66633;47.628;19.158;2023-04-24T12:51:44;13.68;;;9.70;;
77520;SDS011;66633;47.628;19.158;2023-04-24T12:54:09;12.83;;;9.47;;
77520;SDS011;66633;47.628;19.158;2023-04-24T12:56:35;12.73;;;9.60;;
77520;SDS011;66633;47.628;19.158;2023-04-24T12:59:04;13.32;;;9.00;;
77520;SDS011;66633;47.628;19.158;2023-04-24T13:01:30;12.85;;;8.48;;
77520;SDS011;66633;47.628;19.158;2023-04-24T13:03:55;11.23;;;8.13;;
77520;SDS011;66633;47.628;19.158;2023-04-24T13:06:20;14.15;;;8.98;;
77520;SDS011;66633;47.628;19.158;2023-04-24T13:08:46;13.68;;;8.88;;
77520;SDS011;66633;47.628;19.158;2023-04-24T13:11:12;17.05;;;10.20;;
77520;SDS011;66633;47.628;19.158;2023-04-24T13:13:38;17.60;;;10.70;;
77520;SDS011;66633;47.628;19.158;2023-04-24T13:16:03;13.53;;;9.83;;
77520;SDS011;66633;47.628;19.158;2023-04-24T13:18:28;15.30;;;8.38;;
77520;SDS011;66633;47.628;19.158;2023-04-24T13:20:54;12.30;;;9.20;;
77520;SDS011;66633;47.628;19.158;2023-04-24T13:23:19;13.80;;;9.63;;
77520;SDS011;66633;47.628;19.158;2023-04-24T13:25:45;16.45;;;11.20;;
77520;SDS011;66633;47.628;19.158;2023-04-24T13:28:10;14.25;;;10.73;;
77520;SDS011;66633;47.628;19.158;2023-04-24T13:30:36;15.87;;;9.70;;
77520;SDS011;66633;47.628;19.158;2023-04-24T13:33:01;14.52;;;8.40;;
77520;SDS011;66633;47.628;19.158;2023-04-24T13:35:29;13.52;;;9.05;;
77520;SDS011;66633;47.628;19.158;2023-04-24T13:37:57;11.15;;;6.85;;
77520;SDS011;66633;47.628;19.158;2023-04-24T13:40:22;13.57;;;8.00;;
77520;SDS011;66633;47.628;19.158;2023-04-24T13:42:47;12.60;;;8.95;;
77520;SDS011;66633;47.628;19.158;2023-04-24T13:45:13;12.88;;;8.13;;
77520;SDS011;66633;47.628;19.158;2023-04-24T13:47:38;12.52;;;7.75;;
77520;SDS011;66633;47.628;19.158;2023-04-24T13:50:06;11.85;;;7.90;;
77520;SDS011;66633;47.628;19.158;2023-04-24T13:52:31;12.90;;;7.93;;
77520;SDS011;66633;47.628;19.158;2023-04-24T13:54:56;11.47;;;6.93;;
77520;SDS011;66633;47.628;19.158;2023-04-24T13:57:21;13.23;;;7.47;;
77520;SDS011;66633;47.628;19.158;2023-04-24T13:59:47;12.40;;;6.70;;
77520;SDS011;66633;47.628;19.158;2023-04-24T14:02:12;12.95;;;7.13;;
77520;SDS011;66633;47.628;19.158;2023-04-24T14:04:38;10.60;;;6.50;;
77520;SDS011;66633;47.628;19.158;2023-04-24T14:07:03;14.18;;;8.00;;
77520;SDS011;66633;47.628;19.158;2023-04-24T14:09:28;11.27;;;6.87;;
77520;SDS011;66633;47.628;19.158;2023-04-24T14:11:54;10.13;;;6.70;;
77520;SDS011;66633;47.628;19.158;2023-04-24T14:14:19;11.27;;;5.88;;
77520;SDS011;66633;47.628;19.158;2023-04-24T14:16:44;13.47;;;7.73;;
77520;SDS011;66633;47.628;19.158;2023-04-24T14:19:10;10.53;;;6.40;;
77520;SDS011;66633;47.628;19.158;2023-04-24T14:21:35;14.50;;;6.93;;
77520;SDS011;66633;47.628;19.158;2023-04-24T14:24:00;10.90;;;6.68;;
77520;SDS011;66633;47.628;19.158;2023-04-24T14:26:25;10.82;;;6.57;;
77520;SDS011;66633;47.628;19.158;2023-04-24T14:28:51;10.93;;;6.88;;
77520;SDS011;66633;47.628;19.158;2023-04-24T14:31:17;11.75;;;7.90;;